AAL2827 KCLT-KPBI
Flight info
| Callsign | AAL2827 |
|---|---|
| Flight time | 1h 21m |
| Altitude | 36000 |
| Route | ICONS5 NOOKS WURFL Q83 JEVED Q97 KENLL CPTAN3 |
| Aircraft | B738/M-SDE2E3FGHIRWXY/LB1 |
Departure
| Time | 2026-04-23 03:31 |
|---|---|
| Airport | Charlotte Douglas International Airport (KCLT) |
Arrival
| Time | 2026-04-23 04:52 |
|---|---|
| Airport | Palm Beach International Airport (KPBI) |
| Time | Latitude | Longitude | Altitude | Speed | Heading |
|---|---|---|---|---|---|
| 2026-04-23 03:05 | 35.22002 | -80.94016 | 731 ft | 0 kts | 356° |
| 2026-04-23 03:20 | 35.21987 | -80.94015 | 731 ft | 4 kts | 356° |
| 2026-04-23 03:20 | 35.21966 | -80.94013 | 730 ft | 4 kts | 357° |
| 2026-04-23 03:20 | 35.21940 | -80.94014 | 730 ft | 4 kts | 19° |
| 2026-04-23 03:21 | 35.21925 | -80.94030 | 729 ft | 3 kts | 85° |
| 2026-04-23 03:21 | 35.21923 | -80.94056 | 729 ft | 1 kts | 85° |
| 2026-04-23 03:24 | 35.21923 | -80.94041 | 731 ft | 4 kts | 98° |
| 2026-04-23 03:24 | 35.21903 | -80.93993 | 731 ft | 9 kts | 122° |
| 2026-04-23 03:25 | 35.21867 | -80.93906 | 731 ft | 14 kts | 103° |
| 2026-04-23 03:25 | 35.21916 | -80.93792 | 731 ft | 18 kts | 49° |
| 2026-04-23 03:25 | 35.21887 | -80.93701 | 733 ft | 14 kts | 176° |
| 2026-04-23 03:25 | 35.21792 | -80.93695 | 734 ft | 14 kts | 176° |
| 2026-04-23 03:26 | 35.21690 | -80.93685 | 732 ft | 15 kts | 176° |
| 2026-04-23 03:26 | 35.21582 | -80.93676 | 732 ft | 15 kts | 176° |
| 2026-04-23 03:26 | 35.21477 | -80.93667 | 732 ft | 15 kts | 176° |
| 2026-04-23 03:26 | 35.21376 | -80.93658 | 732 ft | 15 kts | 176° |
| 2026-04-23 03:27 | 35.21264 | -80.93648 | 732 ft | 17 kts | 176° |
| 2026-04-23 03:27 | 35.21137 | -80.93638 | 732 ft | 19 kts | 175° |
| 2026-04-23 03:27 | 35.21000 | -80.93626 | 732 ft | 20 kts | 176° |
| 2026-04-23 03:27 | 35.20855 | -80.93614 | 732 ft | 21 kts | 176° |
| 2026-04-23 03:28 | 35.20705 | -80.93601 | 732 ft | 22 kts | 176° |
| 2026-04-23 03:28 | 35.20555 | -80.93588 | 732 ft | 21 kts | 176° |
| 2026-04-23 03:28 | 35.20410 | -80.93575 | 732 ft | 21 kts | 176° |
| 2026-04-23 03:28 | 35.20270 | -80.93564 | 732 ft | 20 kts | 176° |
| 2026-04-23 03:29 | 35.20135 | -80.93548 | 732 ft | 19 kts | 162° |
| 2026-04-23 03:29 | 35.20106 | -80.93442 | 732 ft | 9 kts | 84° |
| 2026-04-23 03:29 | 35.20139 | -80.93417 | 733 ft | 3 kts | 357° |
| 2026-04-23 03:29 | 35.20144 | -80.93417 | 733 ft | 0 kts | 356° |
| 2026-04-23 03:30 | 35.20157 | -80.93418 | 733 ft | 10 kts | 355° |
| 2026-04-23 03:30 | 35.20475 | -80.93446 | 735 ft | 82 kts | 356° |
| 2026-04-23 03:30 | 35.20956 | -80.93488 | 732 ft | 126 kts | 356° |
| 2026-04-23 03:30 | 35.22017 | -80.93582 | 814 ft | 173 kts | 355° |
| 2026-04-23 03:31 | 35.23252 | -80.93672 | 1440 ft | 182 kts | 0° |
| 2026-04-23 03:31 | 35.24519 | -80.93338 | 2135 ft | 194 kts | 16° |
| 2026-04-23 03:31 | 35.26280 | -80.92577 | 2978 ft | 204 kts | 16° |
| 2026-04-23 03:31 | 35.27152 | -80.92200 | 3596 ft | 196 kts | 16° |
| 2026-04-23 03:32 | 35.28425 | -80.91636 | 4433 ft | 196 kts | 17° |
| 2026-04-23 03:32 | 35.29702 | -80.90964 | 5043 ft | 208 kts | 31° |
| 2026-04-23 03:32 | 35.30714 | -80.89596 | 5335 ft | 233 kts | 62° |
| 2026-04-23 03:32 | 35.31081 | -80.87565 | 5600 ft | 257 kts | 93° |
| 2026-04-23 03:33 | 35.30589 | -80.85446 | 6216 ft | 262 kts | 125° |
| 2026-04-23 03:33 | 35.29243 | -80.83982 | 6830 ft | 265 kts | 158° |
| 2026-04-23 03:33 | 35.27432 | -80.83481 | 7319 ft | 271 kts | 184° |
| 2026-04-23 03:33 | 35.25577 | -80.83885 | 7950 ft | 273 kts | 199° |
| 2026-04-23 03:34 | 35.23757 | -80.84569 | 8738 ft | 273 kts | 200° |
| 2026-04-23 03:34 | 35.21898 | -80.85105 | 9480 ft | 277 kts | 193° |
| 2026-04-23 03:34 | 35.19990 | -80.85527 | 10106 ft | 284 kts | 192° |
| 2026-04-23 03:34 | 35.18006 | -80.85996 | 10536 ft | 295 kts | 194° |
| 2026-04-23 03:35 | 35.15973 | -80.86565 | 10994 ft | 306 kts | 195° |
| 2026-04-23 03:35 | 35.13867 | -80.87174 | 11489 ft | 315 kts | 195° |
| 2026-04-23 03:35 | 35.11698 | -80.87798 | 12002 ft | 325 kts | 195° |
| 2026-04-23 03:35 | 35.09464 | -80.88433 | 12524 ft | 334 kts | 194° |
| 2026-04-23 03:36 | 35.07161 | -80.89081 | 13051 ft | 343 kts | 194° |
| 2026-04-23 03:36 | 35.04801 | -80.89739 | 13589 ft | 353 kts | 194° |
| 2026-04-23 03:36 | 35.02376 | -80.90413 | 14108 ft | 362 kts | 194° |
| 2026-04-23 03:36 | 34.99888 | -80.91102 | 14592 ft | 371 kts | 194° |
| 2026-04-23 03:37 | 34.97379 | -80.91795 | 15076 ft | 379 kts | 194° |
| 2026-04-23 03:37 | 34.94775 | -80.92514 | 15574 ft | 387 kts | 193° |
| 2026-04-23 03:37 | 34.92126 | -80.93245 | 16077 ft | 394 kts | 193° |
| 2026-04-23 03:37 | 34.89431 | -80.93988 | 16580 ft | 400 kts | 193° |
| 2026-04-23 03:38 | 34.86698 | -80.94741 | 17123 ft | 405 kts | 193° |
| 2026-04-23 03:38 | 34.83940 | -80.95501 | 17700 ft | 408 kts | 193° |
| 2026-04-23 03:38 | 34.81155 | -80.96268 | 18288 ft | 411 kts | 193° |
| 2026-04-23 03:38 | 34.78322 | -80.96859 | 18806 ft | 414 kts | 185° |
| 2026-04-23 03:39 | 34.75440 | -80.96974 | 19328 ft | 417 kts | 181° |
| 2026-04-23 03:39 | 34.72532 | -80.97001 | 19851 ft | 419 kts | 181° |
| 2026-04-23 03:39 | 34.69609 | -80.97039 | 20382 ft | 421 kts | 181° |
| 2026-04-23 03:39 | 34.66676 | -80.97108 | 20921 ft | 422 kts | 182° |
| 2026-04-23 03:40 | 34.63772 | -80.97197 | 21440 ft | 424 kts | 182° |
| 2026-04-23 03:40 | 34.60807 | -80.97309 | 21877 ft | 428 kts | 183° |
| 2026-04-23 03:40 | 34.57819 | -80.97538 | 22346 ft | 431 kts | 185° |
| 2026-04-23 03:40 | 34.54829 | -80.97834 | 22817 ft | 433 kts | 185° |
| 2026-04-23 03:41 | 34.51819 | -80.98151 | 23294 ft | 435 kts | 185° |
| 2026-04-23 03:41 | 34.48794 | -80.98465 | 23765 ft | 437 kts | 185° |
| 2026-04-23 03:41 | 34.45757 | -80.98770 | 24165 ft | 439 kts | 185° |
| 2026-04-23 03:41 | 34.42707 | -80.99066 | 24599 ft | 440 kts | 185° |
| 2026-04-23 03:42 | 34.39647 | -80.99356 | 25016 ft | 442 kts | 185° |
| 2026-04-23 03:42 | 34.36577 | -80.99643 | 25442 ft | 443 kts | 185° |
| 2026-04-23 03:42 | 34.33490 | -80.99930 | 25735 ft | 448 kts | 185° |
| 2026-04-23 03:42 | 34.30363 | -81.00220 | 25982 ft | 453 kts | 185° |
| 2026-04-23 03:43 | 34.27201 | -81.00514 | 26226 ft | 458 kts | 185° |
| 2026-04-23 03:43 | 34.24006 | -81.00810 | 26476 ft | 463 kts | 185° |
| 2026-04-23 03:43 | 34.20787 | -81.01109 | 26726 ft | 467 kts | 185° |
| 2026-04-23 03:43 | 34.17521 | -81.01412 | 26978 ft | 471 kts | 185° |
| 2026-04-23 03:44 | 34.14249 | -81.01715 | 27214 ft | 474 kts | 185° |
| 2026-04-23 03:44 | 34.10940 | -81.02022 | 27489 ft | 477 kts | 185° |
| 2026-04-23 03:44 | 34.07618 | -81.02329 | 27751 ft | 480 kts | 185° |
| 2026-04-23 03:44 | 34.04277 | -81.02638 | 28016 ft | 483 kts | 185° |
| 2026-04-23 03:45 | 34.00962 | -81.02945 | 28274 ft | 485 kts | 185° |
| 2026-04-23 03:45 | 33.97540 | -81.03242 | 28539 ft | 488 kts | 183° |
| 2026-04-23 03:45 | 33.94194 | -81.03348 | 28947 ft | 486 kts | 180° |
| 2026-04-23 03:45 | 33.90817 | -81.03322 | 29424 ft | 484 kts | 179° |
| 2026-04-23 03:46 | 33.87459 | -81.03242 | 29901 ft | 481 kts | 179° |
| 2026-04-23 03:46 | 33.84109 | -81.03155 | 30363 ft | 479 kts | 179° |
| 2026-04-23 03:46 | 33.80791 | -81.03080 | 30775 ft | 477 kts | 179° |
| 2026-04-23 03:46 | 33.77484 | -81.03023 | 31208 ft | 474 kts | 179° |
| 2026-04-23 03:47 | 33.74192 | -81.02979 | 31646 ft | 471 kts | 180° |
| 2026-04-23 03:47 | 33.70920 | -81.02945 | 32086 ft | 468 kts | 180° |
| 2026-04-23 03:47 | 33.67666 | -81.02916 | 32540 ft | 465 kts | 180° |
| 2026-04-23 03:47 | 33.64438 | -81.02888 | 32992 ft | 462 kts | 180° |
| 2026-04-23 03:48 | 33.61238 | -81.02862 | 33457 ft | 458 kts | 180° |
| 2026-04-23 03:48 | 33.58060 | -81.02834 | 33895 ft | 456 kts | 180° |
| 2026-04-23 03:48 | 33.54884 | -81.02807 | 34140 ft | 457 kts | 180° |
| 2026-04-23 03:48 | 33.51702 | -81.02779 | 34384 ft | 458 kts | 180° |
| 2026-04-23 03:49 | 33.48516 | -81.02750 | 34619 ft | 458 kts | 180° |
| 2026-04-23 03:49 | 33.45327 | -81.02722 | 34880 ft | 458 kts | 180° |
| 2026-04-23 03:49 | 33.42137 | -81.02693 | 35119 ft | 458 kts | 180° |
| 2026-04-23 03:49 | 33.38982 | -81.02665 | 35355 ft | 459 kts | 180° |
| 2026-04-23 03:50 | 33.35792 | -81.02636 | 35597 ft | 458 kts | 180° |
| 2026-04-23 03:50 | 33.32603 | -81.02607 | 35833 ft | 458 kts | 180° |
| 2026-04-23 03:50 | 33.29417 | -81.02579 | 36076 ft | 458 kts | 180° |
| 2026-04-23 03:50 | 33.26227 | -81.02550 | 36173 ft | 460 kts | 181° |
| 2026-04-23 03:51 | 33.19752 | -81.02493 | 36174 ft | 469 kts | 180° |
| 2026-04-23 03:51 | 33.13167 | -81.02435 | 36177 ft | 477 kts | 180° |
| 2026-04-23 03:52 | 33.06479 | -81.02375 | 36171 ft | 484 kts | 180° |
| 2026-04-23 03:52 | 32.99721 | -81.02314 | 36169 ft | 486 kts | 180° |
| 2026-04-23 03:53 | 32.92941 | -81.02254 | 36170 ft | 487 kts | 180° |
| 2026-04-23 03:53 | 32.86161 | -81.02193 | 36168 ft | 487 kts | 180° |
| 2026-04-23 03:54 | 32.79442 | -81.02134 | 36166 ft | 486 kts | 181° |
| 2026-04-23 03:54 | 32.72685 | -81.02074 | 36173 ft | 485 kts | 181° |
| 2026-04-23 03:55 | 32.65943 | -81.02014 | 36177 ft | 484 kts | 181° |
| 2026-04-23 03:55 | 32.59209 | -81.01955 | 36181 ft | 483 kts | 181° |
| 2026-04-23 03:56 | 32.52488 | -81.01897 | 36180 ft | 482 kts | 181° |
| 2026-04-23 03:56 | 32.45780 | -81.01979 | 36188 ft | 482 kts | 182° |
| 2026-04-23 03:57 | 32.39081 | -81.02121 | 36188 ft | 481 kts | 182° |
| 2026-04-23 03:57 | 32.32383 | -81.02237 | 36192 ft | 481 kts | 182° |
| 2026-04-23 03:58 | 32.25689 | -81.02345 | 36195 ft | 481 kts | 182° |
| 2026-04-23 03:58 | 32.19003 | -81.02463 | 36194 ft | 480 kts | 182° |
| 2026-04-23 03:59 | 32.12318 | -81.02582 | 36196 ft | 480 kts | 182° |
| 2026-04-23 03:59 | 32.05634 | -81.02700 | 36166 ft | 480 kts | 182° |
| 2026-04-23 04:00 | 31.98952 | -81.02818 | 36163 ft | 480 kts | 183° |
| 2026-04-23 04:00 | 31.92277 | -81.03002 | 36167 ft | 480 kts | 183° |
| 2026-04-23 04:01 | 31.85611 | -81.03211 | 36169 ft | 480 kts | 183° |
| 2026-04-23 04:01 | 31.78981 | -81.03410 | 36170 ft | 480 kts | 183° |
| 2026-04-23 04:02 | 31.72308 | -81.03603 | 36173 ft | 479 kts | 183° |
| 2026-04-23 04:02 | 31.65639 | -81.03796 | 36180 ft | 479 kts | 183° |
| 2026-04-23 04:03 | 31.58975 | -81.03989 | 36182 ft | 479 kts | 183° |
| 2026-04-23 04:03 | 31.52320 | -81.04331 | 36187 ft | 478 kts | 185° |
| 2026-04-23 04:04 | 31.45676 | -81.04792 | 36182 ft | 478 kts | 185° |
| 2026-04-23 04:04 | 31.39041 | -81.05230 | 36193 ft | 478 kts | 185° |
| 2026-04-23 04:05 | 31.32399 | -81.05645 | 36193 ft | 478 kts | 185° |
| 2026-04-23 04:05 | 31.25757 | -81.06059 | 36205 ft | 478 kts | 185° |
| 2026-04-23 04:06 | 31.19106 | -81.06319 | 36193 ft | 478 kts | 183° |
| 2026-04-23 04:06 | 31.12451 | -81.06406 | 36196 ft | 478 kts | 183° |
| 2026-04-23 04:07 | 31.05842 | -81.06506 | 36203 ft | 478 kts | 183° |
| 2026-04-23 04:07 | 30.99192 | -81.06637 | 36210 ft | 478 kts | 183° |
| 2026-04-23 04:08 | 30.92545 | -81.06778 | 36191 ft | 478 kts | 183° |
| 2026-04-23 04:08 | 30.85900 | -81.06918 | 36201 ft | 477 kts | 183° |
| 2026-04-23 04:09 | 30.79268 | -81.07056 | 36207 ft | 477 kts | 183° |
| 2026-04-23 04:09 | 30.72629 | -81.07194 | 36192 ft | 477 kts | 183° |
| 2026-04-23 04:10 | 30.65993 | -81.07332 | 36196 ft | 477 kts | 183° |
| 2026-04-23 04:10 | 30.59359 | -81.07521 | 36197 ft | 476 kts | 185° |
| 2026-04-23 04:11 | 30.52751 | -81.07930 | 36202 ft | 476 kts | 186° |
| 2026-04-23 04:11 | 30.46140 | -81.08372 | 36204 ft | 476 kts | 186° |
| 2026-04-23 04:12 | 30.39532 | -81.08784 | 36203 ft | 476 kts | 185° |
| 2026-04-23 04:12 | 30.32915 | -81.09179 | 36206 ft | 476 kts | 185° |
| 2026-04-23 04:13 | 30.26294 | -81.09570 | 36204 ft | 476 kts | 185° |
| 2026-04-23 04:13 | 30.19672 | -81.09962 | 36202 ft | 476 kts | 185° |
| 2026-04-23 04:14 | 30.13054 | -81.10354 | 36206 ft | 477 kts | 185° |
| 2026-04-23 04:14 | 30.06423 | -81.10747 | 36206 ft | 476 kts | 186° |
| 2026-04-23 04:15 | 29.99803 | -81.11138 | 36215 ft | 476 kts | 186° |
| 2026-04-23 04:16 | 29.89887 | -81.11723 | 36215 ft | 476 kts | 186° |
| 2026-04-23 04:16 | 29.83272 | -81.12113 | 36212 ft | 476 kts | 186° |
| 2026-04-23 04:17 | 29.76693 | -81.12341 | 36212 ft | 476 kts | 184° |
| 2026-04-23 04:17 | 29.70071 | -81.12321 | 36199 ft | 475 kts | 184° |
| 2026-04-23 04:18 | 29.63472 | -81.12345 | 36200 ft | 474 kts | 184° |
| 2026-04-23 04:18 | 29.56874 | -81.12182 | 36184 ft | 479 kts | 172° |
| 2026-04-23 04:19 | 29.50507 | -81.09640 | 36197 ft | 483 kts | 164° |
| 2026-04-23 04:19 | 29.44222 | -81.06920 | 36207 ft | 483 kts | 165° |
| 2026-04-23 04:20 | 29.38972 | -81.04714 | 36207 ft | 483 kts | 165° |
| 2026-04-23 04:20 | 29.31624 | -81.01677 | 36210 ft | 484 kts | 165° |
| 2026-04-23 04:21 | 29.25279 | -80.99063 | 36214 ft | 485 kts | 165° |
| 2026-04-23 04:21 | 29.19994 | -80.96885 | 36204 ft | 485 kts | 166° |
| 2026-04-23 04:22 | 29.13642 | -80.94268 | 36187 ft | 485 kts | 166° |
| 2026-04-23 04:22 | 29.07285 | -80.91653 | 36186 ft | 486 kts | 166° |
| 2026-04-23 04:23 | 29.00933 | -80.89042 | 36187 ft | 486 kts | 166° |
| 2026-04-23 04:23 | 28.94567 | -80.86430 | 36181 ft | 485 kts | 166° |
| 2026-04-23 04:24 | 28.88210 | -80.83829 | 36180 ft | 485 kts | 167° |
| 2026-04-23 04:24 | 28.81859 | -80.81237 | 36180 ft | 485 kts | 167° |
| 2026-04-23 04:25 | 28.75511 | -80.78647 | 36180 ft | 485 kts | 167° |
| 2026-04-23 04:25 | 28.69160 | -80.76058 | 36175 ft | 485 kts | 167° |
| 2026-04-23 04:26 | 28.62801 | -80.73470 | 35845 ft | 489 kts | 167° |
| 2026-04-23 04:26 | 28.59587 | -80.72167 | 35270 ft | 491 kts | 167° |
| 2026-04-23 04:26 | 28.56374 | -80.70862 | 34709 ft | 489 kts | 167° |
| 2026-04-23 04:26 | 28.53212 | -80.69575 | 34125 ft | 487 kts | 168° |
| 2026-04-23 04:27 | 28.49994 | -80.68268 | 33467 ft | 486 kts | 167° |
| 2026-04-23 04:27 | 28.46851 | -80.66994 | 32832 ft | 486 kts | 167° |
| 2026-04-23 04:27 | 28.43657 | -80.65700 | 32203 ft | 486 kts | 167° |
| 2026-04-23 04:28 | 28.37255 | -80.63111 | 31000 ft | 493 kts | 167° |
| 2026-04-23 04:28 | 28.34001 | -80.61796 | 30358 ft | 499 kts | 166° |
| 2026-04-23 04:28 | 28.30722 | -80.60469 | 29670 ft | 500 kts | 166° |
| 2026-04-23 04:28 | 28.27449 | -80.59144 | 28969 ft | 499 kts | 166° |
| 2026-04-23 04:29 | 28.24182 | -80.57823 | 28288 ft | 498 kts | 166° |
| 2026-04-23 04:29 | 28.20922 | -80.56508 | 27614 ft | 497 kts | 165° |
| 2026-04-23 04:29 | 28.17668 | -80.55197 | 26967 ft | 495 kts | 165° |
| 2026-04-23 04:29 | 28.14421 | -80.53890 | 26333 ft | 496 kts | 165° |
| 2026-04-23 04:30 | 28.11159 | -80.52578 | 25715 ft | 498 kts | 165° |
| 2026-04-23 04:30 | 28.07913 | -80.51271 | 25104 ft | 493 kts | 165° |
| 2026-04-23 04:30 | 28.04699 | -80.49976 | 24504 ft | 486 kts | 165° |
| 2026-04-23 04:30 | 28.01528 | -80.48701 | 23897 ft | 481 kts | 164° |
| 2026-04-23 04:31 | 27.98397 | -80.47443 | 23240 ft | 476 kts | 164° |
| 2026-04-23 04:31 | 27.95292 | -80.46197 | 22553 ft | 471 kts | 164° |
| 2026-04-23 04:31 | 27.92253 | -80.44978 | 21894 ft | 467 kts | 164° |
| 2026-04-23 04:31 | 27.89211 | -80.43759 | 21247 ft | 463 kts | 164° |
| 2026-04-23 04:32 | 27.86182 | -80.42544 | 20610 ft | 459 kts | 164° |
| 2026-04-23 04:32 | 27.83192 | -80.41345 | 19990 ft | 455 kts | 163° |
| 2026-04-23 04:32 | 27.80215 | -80.40151 | 19377 ft | 451 kts | 163° |
| 2026-04-23 04:32 | 27.77272 | -80.38972 | 18800 ft | 446 kts | 163° |
| 2026-04-23 04:33 | 27.74359 | -80.37806 | 18191 ft | 442 kts | 163° |
| 2026-04-23 04:33 | 27.71472 | -80.36651 | 17560 ft | 438 kts | 163° |
| 2026-04-23 04:33 | 27.68616 | -80.35509 | 16993 ft | 433 kts | 163° |
| 2026-04-23 04:33 | 27.65793 | -80.34372 | 16442 ft | 429 kts | 162° |
| 2026-04-23 04:34 | 27.63061 | -80.33060 | 15896 ft | 427 kts | 157° |
| 2026-04-23 04:34 | 27.60396 | -80.31605 | 15387 ft | 423 kts | 156° |
| 2026-04-23 04:34 | 27.57759 | -80.30136 | 14914 ft | 420 kts | 155° |
| 2026-04-23 04:34 | 27.55148 | -80.28705 | 14444 ft | 417 kts | 156° |
| 2026-04-23 04:35 | 27.52530 | -80.27306 | 13977 ft | 414 kts | 156° |
| 2026-04-23 04:35 | 27.49961 | -80.25951 | 13466 ft | 412 kts | 156° |
| 2026-04-23 04:35 | 27.47370 | -80.24589 | 12954 ft | 410 kts | 156° |
| 2026-04-23 04:35 | 27.44792 | -80.23234 | 12453 ft | 407 kts | 156° |
| 2026-04-23 04:36 | 27.42231 | -80.21887 | 11955 ft | 405 kts | 156° |
| 2026-04-23 04:36 | 27.39692 | -80.20551 | 11456 ft | 402 kts | 156° |
| 2026-04-23 04:36 | 27.37164 | -80.19221 | 10980 ft | 399 kts | 156° |
| 2026-04-23 04:36 | 27.34668 | -80.17909 | 10497 ft | 393 kts | 156° |
| 2026-04-23 04:37 | 27.32220 | -80.16622 | 10114 ft | 382 kts | 155° |
| 2026-04-23 04:37 | 27.29859 | -80.15381 | 10012 ft | 365 kts | 155° |
| 2026-04-23 04:37 | 27.27616 | -80.14203 | 9973 ft | 347 kts | 155° |
| 2026-04-23 04:37 | 27.25482 | -80.13085 | 9935 ft | 331 kts | 156° |
| 2026-04-23 04:38 | 27.23428 | -80.12065 | 9945 ft | 315 kts | 157° |
| 2026-04-23 04:38 | 27.21449 | -80.11115 | 9701 ft | 308 kts | 158° |
| 2026-04-23 04:38 | 27.19470 | -80.10168 | 9239 ft | 309 kts | 157° |
| 2026-04-23 04:38 | 27.17492 | -80.09215 | 8792 ft | 310 kts | 157° |
| 2026-04-23 04:39 | 27.15531 | -80.08267 | 8355 ft | 310 kts | 157° |
| 2026-04-23 04:39 | 27.14641 | -80.07837 | 8155 ft | 310 kts | 157° |
| 2026-04-23 04:39 | 27.12655 | -80.06870 | 7711 ft | 310 kts | 156° |
| 2026-04-23 04:39 | 27.10679 | -80.05894 | 7290 ft | 310 kts | 155° |
| 2026-04-23 04:40 | 27.08704 | -80.04914 | 6860 ft | 310 kts | 155° |
| 2026-04-23 04:40 | 27.06734 | -80.03936 | 6437 ft | 309 kts | 154° |
| 2026-04-23 04:40 | 27.04779 | -80.02967 | 6032 ft | 307 kts | 154° |
| 2026-04-23 04:40 | 27.02835 | -80.02005 | 5657 ft | 304 kts | 155° |
| 2026-04-23 04:41 | 27.00923 | -80.01060 | 5396 ft | 297 kts | 154° |
| 2026-04-23 04:41 | 26.99054 | -80.00138 | 5149 ft | 290 kts | 154° |
| 2026-04-23 04:41 | 26.97214 | -79.99264 | 4900 ft | 285 kts | 160° |
| 2026-04-23 04:41 | 26.95250 | -79.99080 | 4615 ft | 286 kts | 187° |
| 2026-04-23 04:42 | 26.93387 | -79.99821 | 4372 ft | 286 kts | 209° |
| 2026-04-23 04:42 | 26.91786 | -80.01136 | 4129 ft | 283 kts | 215° |
| 2026-04-23 04:42 | 26.90260 | -80.02480 | 4009 ft | 274 kts | 215° |
| 2026-04-23 04:42 | 26.88790 | -80.03767 | 3979 ft | 262 kts | 215° |
| 2026-04-23 04:43 | 26.87386 | -80.04986 | 3963 ft | 248 kts | 214° |
| 2026-04-23 04:43 | 26.86053 | -80.06138 | 3962 ft | 236 kts | 214° |
| 2026-04-23 04:43 | 26.84798 | -80.07218 | 3971 ft | 229 kts | 214° |
| 2026-04-23 04:43 | 26.83538 | -80.08308 | 3976 ft | 228 kts | 215° |
| 2026-04-23 04:44 | 26.82288 | -80.09396 | 3985 ft | 227 kts | 215° |
| 2026-04-23 04:44 | 26.81083 | -80.10544 | 3976 ft | 230 kts | 228° |
| 2026-04-23 04:44 | 26.80516 | -80.12206 | 3998 ft | 232 kts | 264° |
| 2026-04-23 04:44 | 26.80410 | -80.14010 | 3981 ft | 233 kts | 264° |
| 2026-04-23 04:45 | 26.80284 | -80.15830 | 3979 ft | 235 kts | 264° |
| 2026-04-23 04:45 | 26.80154 | -80.17660 | 3996 ft | 235 kts | 264° |
| 2026-04-23 04:45 | 26.80023 | -80.19483 | 3990 ft | 234 kts | 264° |
| 2026-04-23 04:45 | 26.79870 | -80.21267 | 3837 ft | 229 kts | 261° |
| 2026-04-23 04:46 | 26.79660 | -80.23047 | 3526 ft | 232 kts | 260° |
| 2026-04-23 04:46 | 26.79437 | -80.24858 | 3153 ft | 238 kts | 261° |
| 2026-04-23 04:46 | 26.79235 | -80.26718 | 2801 ft | 242 kts | 261° |
| 2026-04-23 04:46 | 26.78876 | -80.28531 | 2467 ft | 242 kts | 238° |
| 2026-04-23 04:47 | 26.77721 | -80.29755 | 2311 ft | 224 kts | 197° |
| 2026-04-23 04:47 | 26.76267 | -80.29832 | 2172 ft | 203 kts | 157° |
| 2026-04-23 04:47 | 26.75020 | -80.29233 | 2072 ft | 190 kts | 152° |
| 2026-04-23 04:47 | 26.73826 | -80.28658 | 2017 ft | 185 kts | 153° |
| 2026-04-23 04:48 | 26.72653 | -80.28095 | 1991 ft | 183 kts | 153° |
| 2026-04-23 04:48 | 26.71486 | -80.27534 | 1994 ft | 183 kts | 153° |
| 2026-04-23 04:48 | 26.70305 | -80.26962 | 1999 ft | 185 kts | 152° |
| 2026-04-23 04:48 | 26.69301 | -80.26135 | 1976 ft | 176 kts | 117° |
| 2026-04-23 04:49 | 26.69053 | -80.24870 | 2008 ft | 163 kts | 97° |
| 2026-04-23 04:49 | 26.68910 | -80.23626 | 1996 ft | 159 kts | 95° |
| 2026-04-23 04:49 | 26.68832 | -80.22391 | 1997 ft | 160 kts | 93° |
| 2026-04-23 04:49 | 26.68775 | -80.21139 | 1908 ft | 164 kts | 93° |
| 2026-04-23 04:50 | 26.68719 | -80.19873 | 1711 ft | 161 kts | 93° |
| 2026-04-23 04:50 | 26.68667 | -80.18670 | 1482 ft | 152 kts | 93° |
| 2026-04-23 04:50 | 26.68617 | -80.17532 | 1304 ft | 140 kts | 92° |
| 2026-04-23 04:50 | 26.68570 | -80.16469 | 1135 ft | 136 kts | 94° |
| 2026-04-23 04:51 | 26.68523 | -80.15410 | 961 ft | 139 kts | 93° |
| 2026-04-23 04:51 | 26.68472 | -80.14328 | 748 ft | 141 kts | 93° |
| 2026-04-23 04:51 | 26.68429 | -80.13239 | 474 ft | 141 kts | 94° |
| 2026-04-23 04:51 | 26.68372 | -80.12145 | 288 ft | 141 kts | 93° |
| 2026-04-23 04:52 | 26.68329 | -80.11057 | 126 ft | 139 kts | 92° |
| 2026-04-23 04:52 | 26.68283 | -80.10000 | 22 ft | 128 kts | 93° |
| 2026-04-23 04:52 | 26.68250 | -80.09200 | 21 ft | 64 kts | 93° |
| 2026-04-23 04:52 | 26.68244 | -80.08877 | 21 ft | 22 kts | 64° |
| 2026-04-23 04:53 | 26.68346 | -80.08887 | 21 ft | 16 kts | 280° |
| 2026-04-23 04:53 | 26.68351 | -80.09004 | 21 ft | 11 kts | 272° |
| 2026-04-23 04:53 | 26.68356 | -80.09091 | 21 ft | 11 kts | 272° |
| 2026-04-23 04:53 | 26.68360 | -80.09178 | 21 ft | 12 kts | 272° |
| 2026-04-23 04:54 | 26.68365 | -80.09291 | 21 ft | 16 kts | 275° |
| 2026-04-23 04:54 | 26.68431 | -80.09380 | 21 ft | 15 kts | 344° |
| 2026-04-23 04:54 | 26.68511 | -80.09342 | 21 ft | 10 kts | 11° |
| 2026-04-23 04:54 | 26.68572 | -80.09319 | 21 ft | 9 kts | 19° |
| 2026-04-23 04:55 | 26.68601 | -80.09315 | 21 ft | 2 kts | 357° |
| 2026-04-23 04:55 | 26.68618 | -80.09316 | 21 ft | 2 kts | 356° |
| 2026-04-23 04:55 | 26.68626 | -80.09317 | 21 ft | 1 kts | 356° |
| 2026-04-23 04:55 | 26.68627 | -80.09317 | 21 ft | 0 kts | 356° |